createdAt,value
2023-10-09T00:02:37.481Z,2.60
2023-10-09T00:07:41.546Z,2.60
2023-10-09T00:12:45.823Z,2.60
2023-10-09T00:17:50.817Z,2.55
2023-10-09T00:22:54.193Z,2.25
2023-10-09T00:28:00.995Z,2.67
2023-10-09T00:33:08.820Z,2.78
2023-10-09T00:38:24.517Z,2.65
2023-10-09T00:43:30.059Z,2.40
2023-10-09T00:48:39.331Z,3.03
2023-10-09T00:53:43.260Z,2.90
2023-10-09T00:58:48.302Z,2.72
2023-10-09T01:03:53.356Z,3.00
2023-10-09T01:09:10.634Z,3.03
2023-10-09T01:14:15.705Z,3.20
2023-10-09T01:19:25.521Z,2.92
2023-10-09T01:24:33.353Z,3.08
2023-10-09T01:29:36.961Z,3.00
2023-10-09T01:34:44.243Z,3.13
2023-10-09T01:39:49.850Z,3.25
2023-10-09T01:44:54.245Z,2.92
2023-10-09T01:49:59.247Z,3.15
2023-10-09T01:55:08.257Z,2.85
2023-10-09T02:00:25.028Z,3.15
2023-10-09T02:05:34.958Z,2.83
2023-10-09T02:10:41.781Z,2.58
2023-10-09T02:15:54.886Z,2.67
2023-10-09T02:21:15.041Z,2.65
2023-10-09T02:26:27.157Z,2.78
2023-10-09T02:31:37.683Z,2.65
2023-10-09T02:36:51.047Z,2.65
2023-10-09T02:42:03.315Z,2.60
2023-10-09T02:47:13.274Z,2.60
2023-10-09T02:52:19.985Z,2.58
2023-10-09T02:57:26.080Z,2.60
2023-10-09T03:02:33.334Z,2.47
2023-10-09T03:07:37.037Z,2.42
2023-10-09T03:12:44.712Z,2.90
2023-10-09T03:17:49.581Z,2.38
2023-10-09T03:22:55.268Z,2.42
2023-10-09T03:28:01.785Z,2.63
2023-10-09T03:33:05.950Z,3.08
2023-10-09T03:38:13.689Z,2.42
2023-10-09T03:43:20.595Z,2.72
2023-10-09T03:48:28.399Z,2.50
2023-10-09T03:53:33.026Z,2.78
2023-10-09T03:58:38.016Z,2.60
2023-10-09T04:03:44.921Z,2.80
2023-10-09T04:08:50.815Z,2.75
2023-10-09T04:13:57.059Z,2.50
2023-10-09T04:19:01.032Z,3.17
2023-10-09T04:24:22.845Z,2.72
2023-10-09T04:29:38.949Z,2.75
2023-10-09T04:34:49.754Z,3.20
2023-10-09T04:40:13.849Z,3.00
2023-10-09T04:45:36.589Z,3.63
2023-10-09T04:51:09.282Z,2.92
2023-10-09T04:56:17.279Z,3.50
2023-10-09T05:01:37.852Z,3.53
2023-10-09T05:06:57.505Z,3.40
2023-10-09T05:12:17.325Z,2.90
2023-10-09T05:17:27.000Z,3.13
2023-10-09T05:22:38.956Z,3.53
2023-10-09T05:27:52.126Z,3.80
2023-10-09T05:33:21.305Z,3.80
2023-10-09T05:38:27.362Z,3.88
2023-10-09T05:43:48.193Z,3.60
2023-10-09T05:49:10.580Z,3.70
2023-10-09T05:54:25.156Z,4.85
2023-10-09T05:59:46.246Z,4.20
2023-10-09T06:04:56.308Z,4.15
2023-10-09T06:10:11.863Z,4.55
2023-10-09T06:15:32.839Z,4.75
2023-10-09T06:21:08.101Z,4.30
2023-10-09T06:26:26.894Z,4.10
2023-10-09T06:31:53.993Z,4.40
2023-10-09T06:37:07.590Z,4.45
2023-10-09T06:42:32.382Z,4.38
2023-10-09T06:47:42.577Z,4.60
2023-10-09T06:53:05.161Z,5.35
2023-10-09T06:58:11.477Z,4.43
2023-10-09T07:03:15.907Z,5.53
2023-10-09T07:08:38.485Z,5.00
2023-10-09T07:13:42.161Z,5.13
2023-10-09T07:24:27.117Z,5.65
2023-10-09T07:29:49.257Z,6.35
2023-10-09T07:34:55.794Z,6.13
2023-10-09T07:40:07.716Z,6.47
2023-10-09T07:45:35.085Z,6.15
2023-10-09T07:50:48.731Z,7.15
2023-10-09T07:55:58.462Z,6.38
2023-10-09T08:07:05.515Z,6.53
2023-10-09T08:12:24.180Z,6.35
2023-10-09T08:17:30.444Z,6.40
2023-10-09T08:22:51.711Z,7.82
2023-10-09T08:28:33.034Z,6.10
2023-10-09T08:38:50.252Z,7.18
2023-10-09T08:43:55.172Z,7.10
2023-10-09T08:49:01.357Z,7.13
2023-10-09T08:54:13.640Z,7.53
2023-10-09T08:59:17.484Z,8.15
2023-10-09T09:04:41.114Z,8.60
2023-10-09T09:09:58.959Z,9.00
2023-10-09T09:15:04.229Z,7.63
2023-10-09T09:20:24.383Z,8.10
2023-10-09T09:25:45.239Z,8.85
2023-10-09T09:30:51.961Z,7.57
2023-10-09T09:36:03.812Z,8.23
2023-10-09T09:41:09.346Z,8.13
2023-10-09T09:46:14.927Z,8.07
2023-10-09T09:51:18.910Z,7.03
2023-10-09T09:56:27.752Z,7.25
2023-10-09T10:01:33.422Z,7.35
2023-10-09T10:06:41.017Z,7.57
2023-10-09T10:11:47.527Z,7.57
2023-10-09T10:17:18.290Z,7.93
2023-10-09T10:22:31.628Z,8.13
2023-10-09T10:27:46.371Z,7.60
2023-10-09T10:32:57.552Z,6.97
2023-10-09T10:38:12.472Z,7.50
2023-10-09T10:43:33.497Z,7.28
2023-10-09T10:48:40.238Z,7.38
2023-10-09T10:54:13.675Z,7.90
2023-10-09T10:59:24.289Z,6.40
2023-10-09T11:04:40.266Z,6.60
2023-10-09T11:10:01.067Z,7.60
2023-10-09T11:15:30.148Z,6.63
2023-10-09T11:20:34.890Z,8.00
2023-10-09T11:25:40.598Z,7.30
2023-10-09T11:30:47.308Z,6.97
2023-10-09T11:35:59.570Z,7.38
2023-10-09T11:41:20.188Z,7.60
2023-10-09T11:46:49.858Z,7.95
2023-10-09T11:52:26.264Z,8.88
2023-10-09T11:57:33.221Z,7.70
2023-10-09T12:02:45.649Z,8.82
2023-10-09T12:07:55.367Z,8.25
2023-10-09T12:12:59.838Z,8.73
2023-10-09T12:18:04.968Z,7.88
2023-10-09T12:23:08.775Z,9.07
2023-10-09T12:28:13.449Z,8.15
2023-10-09T12:33:18.344Z,6.97
2023-10-09T12:38:23.908Z,9.57
2023-10-09T12:43:29.129Z,8.82
2023-10-09T12:48:33.997Z,7.32
2023-10-09T12:53:42.572Z,6.85
2023-10-09T12:58:54.440Z,7.90
2023-10-09T13:04:00.988Z,8.35
2023-10-09T13:09:08.002Z,8.55
2023-10-09T13:14:19.051Z,9.90
2023-10-09T13:19:25.855Z,7.20
2023-10-09T13:24:31.491Z,9.45
2023-10-09T13:29:35.281Z,7.47
2023-10-09T13:34:45.965Z,8.07
2023-10-09T13:39:55.294Z,7.90
2023-10-09T13:44:58.687Z,7.88
2023-10-09T13:50:03.644Z,8.75
2023-10-09T13:55:17.053Z,8.65
2023-10-09T14:00:33.790Z,8.00
2023-10-09T14:05:38.911Z,8.48
2023-10-09T14:10:42.121Z,7.88
2023-10-09T14:15:47.394Z,8.93
2023-10-09T14:20:57.618Z,7.70
2023-10-09T14:26:03.165Z,8.63
2023-10-09T14:31:13.092Z,7.63
2023-10-09T14:36:19.230Z,9.38
2023-10-09T14:41:26.892Z,8.00
2023-10-09T14:46:33.096Z,9.10
2023-10-09T14:51:38.010Z,7.88
2023-10-09T14:56:42.706Z,9.25
2023-10-09T15:01:45.966Z,8.35
2023-10-09T15:06:50.815Z,7.82
2023-10-09T15:11:54.337Z,9.35
2023-10-09T15:16:58.995Z,9.00
2023-10-09T15:22:09.529Z,7.95
2023-10-09T15:27:14.575Z,8.00
2023-10-09T15:32:24.225Z,7.60
2023-10-09T15:37:29.348Z,7.32
2023-10-09T15:42:33.422Z,8.63
2023-10-09T15:47:49.295Z,7.97
2023-10-09T15:52:55.116Z,8.35
2023-10-09T15:58:00.400Z,7.15
2023-10-09T16:03:05.236Z,7.60
2023-10-09T16:08:11.529Z,8.13
2023-10-09T16:13:15.059Z,8.60
2023-10-09T16:18:22.011Z,8.73
2023-10-09T16:23:29.445Z,8.75
2023-10-09T16:28:34.748Z,9.18
2023-10-09T16:33:39.220Z,8.73
2023-10-09T16:38:45.158Z,8.57
2023-10-09T16:43:49.841Z,8.57
2023-10-09T16:48:57.127Z,7.97
2023-10-09T16:54:04.489Z,9.02
2023-10-09T16:59:15.394Z,8.48
2023-10-09T17:04:24.760Z,7.32
2023-10-09T17:09:46.435Z,9.98
2023-10-09T17:14:55.019Z,9.45
2023-10-09T17:19:59.429Z,7.20
2023-10-09T17:25:16.223Z,9.80
2023-10-09T17:30:22.632Z,8.90
2023-10-09T17:35:29.493Z,8.02
2023-10-09T17:40:36.866Z,8.15
2023-10-09T17:45:49.793Z,10.63
2023-10-09T17:50:57.241Z,9.32
2023-10-09T17:56:11.859Z,10.32
2023-10-09T18:01:19.204Z,9.73
2023-10-09T18:06:25.141Z,11.50
2023-10-09T18:11:35.791Z,12.93
2023-10-09T18:16:44.796Z,14.32
2023-10-09T18:21:48.497Z,15.50
2023-10-09T18:27:03.849Z,15.95
2023-10-09T18:32:07.708Z,16.33
2023-10-09T18:37:13.318Z,14.70
2023-10-09T18:42:18.639Z,14.68
2023-10-09T18:47:23.762Z,13.98
2023-10-09T18:52:27.617Z,17.13
2023-10-09T18:57:35.109Z,17.10
2023-10-09T19:02:40.490Z,14.27
2023-10-09T19:07:45.126Z,15.75
2023-10-09T19:12:50.827Z,15.57
2023-10-09T19:17:54.869Z,14.13
2023-10-09T19:23:00.668Z,15.77
2023-10-09T19:28:06.410Z,17.05
2023-10-09T19:33:09.899Z,15.93
2023-10-09T19:38:13.895Z,17.90
2023-10-09T19:43:18.490Z,16.65
2023-10-09T19:48:21.927Z,15.82
2023-10-09T19:53:25.986Z,18.27
2023-10-09T19:58:30.785Z,16.85
2023-10-09T20:03:33.999Z,15.77
2023-10-09T20:08:37.290Z,18.77
2023-10-09T20:13:44.389Z,15.88
2023-10-09T20:18:49.979Z,15.80
2023-10-09T20:23:53.101Z,14.60
2023-10-09T20:28:57.950Z,17.95
2023-10-09T20:34:10.690Z,17.05
2023-10-09T20:39:23.482Z,15.10
2023-10-09T20:44:40.233Z,16.50
2023-10-09T20:49:45.225Z,16.58
2023-10-09T20:54:49.597Z,17.10
2023-10-09T20:59:57.826Z,16.73
2023-10-09T21:05:24.118Z,18.17
2023-10-09T21:10:46.901Z,17.45
2023-10-09T21:15:58.003Z,21.60
2023-10-09T21:21:03.949Z,16.80
2023-10-09T21:26:08.333Z,20.90
2023-10-09T21:31:22.508Z,18.50
2023-10-09T21:36:29.072Z,19.45
2023-10-09T21:41:44.616Z,20.83
2023-10-09T21:46:51.231Z,17.95
2023-10-09T21:51:55.588Z,19.08
2023-10-09T21:56:59.487Z,17.75
2023-10-09T22:02:06.134Z,20.20
2023-10-09T22:07:19.133Z,21.73
2023-10-09T22:12:32.479Z,19.15
2023-10-09T22:17:41.760Z,23.60
2023-10-09T22:22:46.071Z,15.98
2023-10-09T22:27:52.716Z,15.82
2023-10-09T22:33:04.168Z,14.48
2023-10-09T22:38:13.677Z,17.98
2023-10-09T22:43:21.874Z,15.88
2023-10-09T22:48:28.870Z,18.27
2023-10-09T22:53:39.228Z,19.40
2023-10-09T22:58:52.521Z,17.25
2023-10-09T23:04:16.879Z,16.38
2023-10-09T23:09:32.479Z,17.20
2023-10-09T23:14:37.197Z,15.05
2023-10-09T23:19:45.679Z,15.82
2023-10-09T23:24:56.188Z,16.83
2023-10-09T23:30:06.913Z,14.77
2023-10-09T23:35:20.904Z,15.07
2023-10-09T23:40:39.095Z,14.30
2023-10-09T23:45:43.157Z,13.10
2023-10-09T23:50:49.426Z,13.65
2023-10-09T23:55:53.374Z,12.32
